sensor_id;sensor_type;location;lat;lon;timestamp;P1;durP1;ratioP1;P2;durP2;ratioP2
61840;SDS011;47773;53.174;6.614;2023-08-06T00:00:24;25.02;;;13.77;;
61840;SDS011;47773;53.174;6.614;2023-08-06T00:02:50;24.73;;;13.45;;
61840;SDS011;47773;53.174;6.614;2023-08-06T00:05:15;24.02;;;13.35;;
61840;SDS011;47773;53.174;6.614;2023-08-06T00:07:46;30.92;;;13.77;;
61840;SDS011;47773;53.174;6.614;2023-08-06T00:10:12;34.92;;;14.15;;
61840;SDS011;47773;53.174;6.614;2023-08-06T00:12:38;26.73;;;13.43;;
61840;SDS011;47773;53.174;6.614;2023-08-06T00:15:04;21.58;;;12.77;;
61840;SDS011;47773;53.174;6.614;2023-08-06T00:17:30;27.55;;;13.88;;
61840;SDS011;47773;53.174;6.614;2023-08-06T00:19:55;28.30;;;13.23;;
61840;SDS011;47773;53.174;6.614;2023-08-06T00:22:21;22.88;;;12.73;;
61840;SDS011;47773;53.174;6.614;2023-08-06T00:24:47;21.73;;;12.95;;
61840;SDS011;47773;53.174;6.614;2023-08-06T00:27:12;25.13;;;13.50;;
61840;SDS011;47773;53.174;6.614;2023-08-06T00:29:38;30.65;;;13.45;;
61840;SDS011;47773;53.174;6.614;2023-08-06T00:32:04;28.90;;;13.90;;
61840;SDS011;47773;53.174;6.614;2023-08-06T00:34:29;29.73;;;14.07;;
61840;SDS011;47773;53.174;6.614;2023-08-06T00:36:55;32.28;;;13.63;;
61840;SDS011;47773;53.174;6.614;2023-08-06T00:39:20;30.48;;;13.30;;
61840;SDS011;47773;53.174;6.614;2023-08-06T00:41:46;28.20;;;14.35;;
61840;SDS011;47773;53.174;6.614;2023-08-06T00:44:12;34.28;;;15.50;;
61840;SDS011;47773;53.174;6.614;2023-08-06T00:46:37;29.77;;;14.57;;
61840;SDS011;47773;53.174;6.614;2023-08-06T00:49:04;31.67;;;14.77;;
61840;SDS011;47773;53.174;6.614;2023-08-06T00:51:30;30.88;;;15.55;;
61840;SDS011;47773;53.174;6.614;2023-08-06T00:53:57;32.67;;;16.15;;
61840;SDS011;47773;53.174;6.614;2023-08-06T00:56:23;37.90;;;16.45;;
61840;SDS011;47773;53.174;6.614;2023-08-06T00:58:50;37.10;;;16.65;;
61840;SDS011;47773;53.174;6.614;2023-08-06T01:01:16;30.13;;;16.80;;
61840;SDS011;47773;53.174;6.614;2023-08-06T01:03:42;36.38;;;16.92;;
61840;SDS011;47773;53.174;6.614;2023-08-06T01:06:07;33.75;;;17.02;;
61840;SDS011;47773;53.174;6.614;2023-08-06T01:08:38;37.17;;;17.38;;
61840;SDS011;47773;53.174;6.614;2023-08-06T01:14:18;30.85;;;16.67;;
61840;SDS011;47773;53.174;6.614;2023-08-06T01:17:08;35.58;;;16.90;;
61840;SDS011;47773;53.174;6.614;2023-08-06T01:19:35;37.45;;;18.17;;
61840;SDS011;47773;53.174;6.614;2023-08-06T01:22:01;36.25;;;18.63;;
61840;SDS011;47773;53.174;6.614;2023-08-06T01:24:27;40.53;;;19.30;;
61840;SDS011;47773;53.174;6.614;2023-08-06T01:27:11;45.88;;;19.92;;
61840;SDS011;47773;53.174;6.614;2023-08-06T01:29:44;36.88;;;18.95;;
61840;SDS011;47773;53.174;6.614;2023-08-06T01:32:14;35.70;;;19.75;;
61840;SDS011;47773;53.174;6.614;2023-08-06T01:34:41;39.30;;;19.60;;
61840;SDS011;47773;53.174;6.614;2023-08-06T01:37:10;40.92;;;20.27;;
61840;SDS011;47773;53.174;6.614;2023-08-06T01:39:36;37.35;;;20.60;;
61840;SDS011;47773;53.174;6.614;2023-08-06T01:42:02;41.03;;;20.42;;
61840;SDS011;47773;53.174;6.614;2023-08-06T01:44:27;41.63;;;20.77;;
61840;SDS011;47773;53.174;6.614;2023-08-06T01:46:54;39.80;;;20.27;;
61840;SDS011;47773;53.174;6.614;2023-08-06T01:49:19;39.40;;;19.40;;
61840;SDS011;47773;53.174;6.614;2023-08-06T01:51:45;37.22;;;20.55;;
61840;SDS011;47773;53.174;6.614;2023-08-06T01:54:10;37.85;;;20.00;;
61840;SDS011;47773;53.174;6.614;2023-08-06T01:56:36;41.83;;;20.98;;
61840;SDS011;47773;53.174;6.614;2023-08-06T01:59:02;38.47;;;19.58;;
61840;SDS011;47773;53.174;6.614;2023-08-06T02:01:27;36.90;;;20.48;;
61840;SDS011;47773;53.174;6.614;2023-08-06T02:03:53;48.92;;;20.92;;
61840;SDS011;47773;53.174;6.614;2023-08-06T02:06:19;41.70;;;22.02;;
61840;SDS011;47773;53.174;6.614;2023-08-06T02:08:44;43.25;;;21.83;;
61840;SDS011;47773;53.174;6.614;2023-08-06T02:11:10;44.90;;;22.83;;
61840;SDS011;47773;53.174;6.614;2023-08-06T02:13:35;44.80;;;22.67;;
61840;SDS011;47773;53.174;6.614;2023-08-06T02:16:01;46.80;;;23.70;;
61840;SDS011;47773;53.174;6.614;2023-08-06T02:18:27;44.30;;;22.55;;
61840;SDS011;47773;53.174;6.614;2023-08-06T02:20:56;51.08;;;23.05;;
61840;SDS011;47773;53.174;6.614;2023-08-06T02:23:22;48.22;;;23.48;;
61840;SDS011;47773;53.174;6.614;2023-08-06T02:25:48;44.10;;;23.60;;
61840;SDS011;47773;53.174;6.614;2023-08-06T02:28:21;51.88;;;23.38;;
61840;SDS011;47773;53.174;6.614;2023-08-06T02:30:52;46.63;;;23.83;;
61840;SDS011;47773;53.174;6.614;2023-08-06T02:33:18;50.60;;;24.07;;
61840;SDS011;47773;53.174;6.614;2023-08-06T02:35:44;49.33;;;23.58;;
61840;SDS011;47773;53.174;6.614;2023-08-06T02:38:10;50.13;;;24.38;;
61840;SDS011;47773;53.174;6.614;2023-08-06T02:40:35;42.85;;;23.00;;
61840;SDS011;47773;53.174;6.614;2023-08-06T02:43:01;46.40;;;22.80;;
61840;SDS011;47773;53.174;6.614;2023-08-06T02:45:29;49.58;;;24.13;;
61840;SDS011;47773;53.174;6.614;2023-08-06T02:47:54;48.75;;;22.45;;
61840;SDS011;47773;53.174;6.614;2023-08-06T02:50:20;49.65;;;24.13;;
61840;SDS011;47773;53.174;6.614;2023-08-06T02:52:46;46.97;;;24.30;;
61840;SDS011;47773;53.174;6.614;2023-08-06T02:55:11;47.42;;;23.77;;
61840;SDS011;47773;53.174;6.614;2023-08-06T02:57:37;47.20;;;23.85;;
61840;SDS011;47773;53.174;6.614;2023-08-06T03:00:03;51.40;;;24.30;;
61840;SDS011;47773;53.174;6.614;2023-08-06T03:02:29;51.15;;;24.38;;
61840;SDS011;47773;53.174;6.614;2023-08-06T03:04:55;46.53;;;25.50;;
61840;SDS011;47773;53.174;6.614;2023-08-06T03:07:20;49.17;;;24.67;;
61840;SDS011;47773;53.174;6.614;2023-08-06T03:09:46;48.95;;;24.60;;
61840;SDS011;47773;53.174;6.614;2023-08-06T03:12:11;55.53;;;25.17;;
61840;SDS011;47773;53.174;6.614;2023-08-06T03:14:37;59.50;;;25.00;;
61840;SDS011;47773;53.174;6.614;2023-08-06T03:17:03;50.22;;;21.83;;
61840;SDS011;47773;53.174;6.614;2023-08-06T03:19:29;42.90;;;23.08;;
61840;SDS011;47773;53.174;6.614;2023-08-06T03:21:54;42.42;;;21.80;;
61840;SDS011;47773;53.174;6.614;2023-08-06T03:24:20;42.60;;;21.65;;
61840;SDS011;47773;53.174;6.614;2023-08-06T03:26:46;49.72;;;23.40;;
61840;SDS011;47773;53.174;6.614;2023-08-06T03:29:11;43.78;;;21.65;;
61840;SDS011;47773;53.174;6.614;2023-08-06T03:31:37;42.25;;;21.58;;
61840;SDS011;47773;53.174;6.614;2023-08-06T03:34:02;38.63;;;20.42;;
61840;SDS011;47773;53.174;6.614;2023-08-06T03:36:28;48.72;;;22.90;;
61840;SDS011;47773;53.174;6.614;2023-08-06T03:38:54;44.03;;;20.55;;
61840;SDS011;47773;53.174;6.614;2023-08-06T03:41:19;45.08;;;20.88;;
61840;SDS011;47773;53.174;6.614;2023-08-06T03:43:45;40.33;;;19.77;;
61840;SDS011;47773;53.174;6.614;2023-08-06T03:46:11;38.15;;;19.92;;
61840;SDS011;47773;53.174;6.614;2023-08-06T03:48:36;36.50;;;20.10;;
61840;SDS011;47773;53.174;6.614;2023-08-06T03:51:02;36.97;;;20.10;;
61840;SDS011;47773;53.174;6.614;2023-08-06T03:53:28;40.50;;;19.95;;
61840;SDS011;47773;53.174;6.614;2023-08-06T03:55:54;42.28;;;20.08;;
61840;SDS011;47773;53.174;6.614;2023-08-06T03:58:20;35.20;;;18.55;;
61840;SDS011;47773;53.174;6.614;2023-08-06T04:00:46;35.30;;;19.02;;
61840;SDS011;47773;53.174;6.614;2023-08-06T04:03:12;34.78;;;19.27;;
61840;SDS011;47773;53.174;6.614;2023-08-06T04:05:37;41.65;;;17.75;;
61840;SDS011;47773;53.174;6.614;2023-08-06T04:08:03;35.67;;;18.33;;
61840;SDS011;47773;53.174;6.614;2023-08-06T04:10:29;32.53;;;17.33;;
61840;SDS011;47773;53.174;6.614;2023-08-06T04:12:55;35.35;;;17.75;;
61840;SDS011;47773;53.174;6.614;2023-08-06T04:15:20;35.45;;;17.90;;
61840;SDS011;47773;53.174;6.614;2023-08-06T04:17:46;32.60;;;18.25;;
61840;SDS011;47773;53.174;6.614;2023-08-06T04:20:12;36.13;;;17.67;;
61840;SDS011;47773;53.174;6.614;2023-08-06T04:22:37;34.72;;;17.92;;
61840;SDS011;47773;53.174;6.614;2023-08-06T04:25:03;35.28;;;17.33;;
61840;SDS011;47773;53.174;6.614;2023-08-06T04:27:29;31.45;;;16.85;;
61840;SDS011;47773;53.174;6.614;2023-08-06T04:29:55;37.08;;;18.15;;
61840;SDS011;47773;53.174;6.614;2023-08-06T04:32:21;33.22;;;18.00;;
61840;SDS011;47773;53.174;6.614;2023-08-06T04:34:46;34.80;;;17.17;;
61840;SDS011;47773;53.174;6.614;2023-08-06T04:37:13;36.42;;;17.20;;
61840;SDS011;47773;53.174;6.614;2023-08-06T04:39:38;33.55;;;17.23;;
61840;SDS011;47773;53.174;6.614;2023-08-06T04:42:04;34.85;;;17.75;;
61840;SDS011;47773;53.174;6.614;2023-08-06T04:44:30;34.20;;;16.35;;
61840;SDS011;47773;53.174;6.614;2023-08-06T04:46:56;34.67;;;17.75;;
61840;SDS011;47773;53.174;6.614;2023-08-06T04:49:21;28.73;;;16.15;;
61840;SDS011;47773;53.174;6.614;2023-08-06T04:51:47;30.55;;;15.85;;
61840;SDS011;47773;53.174;6.614;2023-08-06T04:54:13;29.05;;;15.68;;
61840;SDS011;47773;53.174;6.614;2023-08-06T04:56:39;35.35;;;16.52;;
61840;SDS011;47773;53.174;6.614;2023-08-06T04:59:04;38.17;;;16.50;;
61840;SDS011;47773;53.174;6.614;2023-08-06T05:01:31;30.80;;;16.13;;
61840;SDS011;47773;53.174;6.614;2023-08-06T05:03:57;33.20;;;15.80;;
61840;SDS011;47773;53.174;6.614;2023-08-06T05:06:22;29.40;;;15.05;;
61840;SDS011;47773;53.174;6.614;2023-08-06T05:08:48;31.85;;;16.92;;
61840;SDS011;47773;53.174;6.614;2023-08-06T05:11:13;34.55;;;17.17;;
61840;SDS011;47773;53.174;6.614;2023-08-06T05:13:39;32.40;;;15.38;;
61840;SDS011;47773;53.174;6.614;2023-08-06T05:16:05;36.88;;;16.98;;
61840;SDS011;47773;53.174;6.614;2023-08-06T05:18:30;37.03;;;16.05;;
61840;SDS011;47773;53.174;6.614;2023-08-06T05:20:56;34.35;;;17.00;;
61840;SDS011;47773;53.174;6.614;2023-08-06T05:23:22;32.50;;;16.90;;
61840;SDS011;47773;53.174;6.614;2023-08-06T05:25:48;30.15;;;16.63;;
61840;SDS011;47773;53.174;6.614;2023-08-06T05:28:13;31.05;;;16.92;;
61840;SDS011;47773;53.174;6.614;2023-08-06T05:30:39;34.08;;;16.70;;
61840;SDS011;47773;53.174;6.614;2023-08-06T05:33:06;33.92;;;16.25;;
61840;SDS011;47773;53.174;6.614;2023-08-06T05:35:32;35.33;;;16.70;;
61840;SDS011;47773;53.174;6.614;2023-08-06T05:37:57;30.30;;;16.65;;
61840;SDS011;47773;53.174;6.614;2023-08-06T05:40:23;33.33;;;17.77;;
61840;SDS011;47773;53.174;6.614;2023-08-06T05:42:50;35.00;;;17.55;;
61840;SDS011;47773;53.174;6.614;2023-08-06T05:45:19;40.00;;;17.65;;
61840;SDS011;47773;53.174;6.614;2023-08-06T05:47:45;31.05;;;17.73;;
61840;SDS011;47773;53.174;6.614;2023-08-06T05:50:10;34.60;;;17.52;;
61840;SDS011;47773;53.174;6.614;2023-08-06T05:52:36;35.13;;;18.30;;
61840;SDS011;47773;53.174;6.614;2023-08-06T05:55:02;32.47;;;18.48;;
61840;SDS011;47773;53.174;6.614;2023-08-06T05:57:28;35.05;;;17.95;;
61840;SDS011;47773;53.174;6.614;2023-08-06T05:59:53;32.53;;;18.02;;
61840;SDS011;47773;53.174;6.614;2023-08-06T06:02:19;37.55;;;17.73;;
61840;SDS011;47773;53.174;6.614;2023-08-06T06:04:45;31.90;;;18.35;;
61840;SDS011;47773;53.174;6.614;2023-08-06T06:07:10;41.60;;;19.80;;
61840;SDS011;47773;53.174;6.614;2023-08-06T06:09:36;36.03;;;19.00;;
61840;SDS011;47773;53.174;6.614;2023-08-06T06:12:02;40.85;;;18.30;;
61840;SDS011;47773;53.174;6.614;2023-08-06T06:14:28;49.65;;;17.92;;
61840;SDS011;47773;53.174;6.614;2023-08-06T06:16:53;33.38;;;18.23;;
61840;SDS011;47773;53.174;6.614;2023-08-06T06:19:19;39.03;;;18.92;;
61840;SDS011;47773;53.174;6.614;2023-08-06T06:21:45;35.38;;;18.77;;
61840;SDS011;47773;53.174;6.614;2023-08-06T06:24:10;35.90;;;18.55;;
61840;SDS011;47773;53.174;6.614;2023-08-06T06:26:36;33.15;;;18.00;;
61840;SDS011;47773;53.174;6.614;2023-08-06T06:29:01;43.08;;;18.83;;
61840;SDS011;47773;53.174;6.614;2023-08-06T06:31:27;32.22;;;17.33;;
61840;SDS011;47773;53.174;6.614;2023-08-06T06:33:53;33.63;;;17.15;;
61840;SDS011;47773;53.174;6.614;2023-08-06T06:36:19;43.85;;;16.13;;
61840;SDS011;47773;53.174;6.614;2023-08-06T06:38:45;34.38;;;16.30;;
61840;SDS011;47773;53.174;6.614;2023-08-06T06:41:11;36.00;;;16.95;;
61840;SDS011;47773;53.174;6.614;2023-08-06T06:43:36;31.23;;;16.45;;
61840;SDS011;47773;53.174;6.614;2023-08-06T06:46:05;32.33;;;15.98;;
61840;SDS011;47773;53.174;6.614;2023-08-06T06:48:31;31.10;;;16.17;;
61840;SDS011;47773;53.174;6.614;2023-08-06T06:50:58;43.22;;;16.48;;
61840;SDS011;47773;53.174;6.614;2023-08-06T06:53:24;39.50;;;16.25;;
61840;SDS011;47773;53.174;6.614;2023-08-06T06:56:00;35.67;;;16.50;;
61840;SDS011;47773;53.174;6.614;2023-08-06T06:58:27;30.23;;;15.43;;
61840;SDS011;47773;53.174;6.614;2023-08-06T07:00:53;28.15;;;15.88;;
61840;SDS011;47773;53.174;6.614;2023-08-06T07:03:19;24.80;;;14.45;;
61840;SDS011;47773;53.174;6.614;2023-08-06T07:05:45;28.98;;;15.20;;
61840;SDS011;47773;53.174;6.614;2023-08-06T07:08:11;30.17;;;15.32;;
61840;SDS011;47773;53.174;6.614;2023-08-06T07:10:36;29.48;;;14.95;;
61840;SDS011;47773;53.174;6.614;2023-08-06T07:13:02;33.72;;;16.13;;
61840;SDS011;47773;53.174;6.614;2023-08-06T07:15:28;27.98;;;14.63;;
61840;SDS011;47773;53.174;6.614;2023-08-06T07:17:54;26.15;;;14.07;;
61840;SDS011;47773;53.174;6.614;2023-08-06T07:20:20;28.08;;;15.40;;
61840;SDS011;47773;53.174;6.614;2023-08-06T07:22:45;25.40;;;15.63;;
61840;SDS011;47773;53.174;6.614;2023-08-06T07:25:11;28.05;;;16.20;;
61840;SDS011;47773;53.174;6.614;2023-08-06T07:27:37;26.33;;;14.85;;
61840;SDS011;47773;53.174;6.614;2023-08-06T07:30:03;28.42;;;15.50;;
61840;SDS011;47773;53.174;6.614;2023-08-06T07:32:30;35.50;;;17.10;;
61840;SDS011;47773;53.174;6.614;2023-08-06T07:34:56;30.38;;;14.93;;
61840;SDS011;47773;53.174;6.614;2023-08-06T07:37:25;25.63;;;14.18;;
61840;SDS011;47773;53.174;6.614;2023-08-06T07:39:53;28.88;;;14.60;;
61840;SDS011;47773;53.174;6.614;2023-08-06T07:42:22;24.80;;;14.68;;
61840;SDS011;47773;53.174;6.614;2023-08-06T07:44:52;23.25;;;13.60;;
61840;SDS011;47773;53.174;6.614;2023-08-06T07:47:19;28.77;;;14.07;;
61840;SDS011;47773;53.174;6.614;2023-08-06T07:49:45;24.90;;;14.15;;
61840;SDS011;47773;53.174;6.614;2023-08-06T07:52:11;26.50;;;13.52;;
61840;SDS011;47773;53.174;6.614;2023-08-06T07:54:36;24.00;;;14.15;;
61840;SDS011;47773;53.174;6.614;2023-08-06T07:57:02;24.52;;;14.35;;
61840;SDS011;47773;53.174;6.614;2023-08-06T07:59:28;23.38;;;14.20;;
61840;SDS011;47773;53.174;6.614;2023-08-06T08:01:54;24.42;;;13.65;;
61840;SDS011;47773;53.174;6.614;2023-08-06T08:04:20;23.67;;;13.88;;
61840;SDS011;47773;53.174;6.614;2023-08-06T08:06:46;24.35;;;14.00;;
61840;SDS011;47773;53.174;6.614;2023-08-06T08:09:12;21.77;;;13.13;;
61840;SDS011;47773;53.174;6.614;2023-08-06T08:11:38;22.80;;;13.98;;
61840;SDS011;47773;53.174;6.614;2023-08-06T08:14:05;25.30;;;13.90;;
61840;SDS011;47773;53.174;6.614;2023-08-06T08:16:31;22.02;;;13.50;;
61840;SDS011;47773;53.174;6.614;2023-08-06T08:18:56;23.35;;;13.98;;
61840;SDS011;47773;53.174;6.614;2023-08-06T08:21:22;24.13;;;12.88;;
61840;SDS011;47773;53.174;6.614;2023-08-06T08:23:49;21.40;;;13.10;;
61840;SDS011;47773;53.174;6.614;2023-08-06T08:26:15;19.35;;;11.80;;
61840;SDS011;47773;53.174;6.614;2023-08-06T08:28:41;19.63;;;11.25;;
61840;SDS011;47773;53.174;6.614;2023-08-06T08:31:10;21.27;;;11.40;;
61840;SDS011;47773;53.174;6.614;2023-08-06T08:33:39;13.48;;;9.02;;
61840;SDS011;47773;53.174;6.614;2023-08-06T08:36:04;18.90;;;9.32;;
61840;SDS011;47773;53.174;6.614;2023-08-06T08:38:30;16.63;;;8.90;;
61840;SDS011;47773;53.174;6.614;2023-08-06T08:40:56;15.85;;;8.40;;
61840;SDS011;47773;53.174;6.614;2023-08-06T08:43:21;14.27;;;8.52;;
61840;SDS011;47773;53.174;6.614;2023-08-06T08:45:51;14.00;;;7.72;;
61840;SDS011;47773;53.174;6.614;2023-08-06T08:48:17;16.63;;;6.93;;
61840;SDS011;47773;53.174;6.614;2023-08-06T08:50:45;17.98;;;7.43;;
61840;SDS011;47773;53.174;6.614;2023-08-06T08:53:12;16.20;;;7.45;;
61840;SDS011;47773;53.174;6.614;2023-08-06T08:55:39;17.83;;;8.70;;
61840;SDS011;47773;53.174;6.614;2023-08-06T08:58:05;16.13;;;7.90;;
61840;SDS011;47773;53.174;6.614;2023-08-06T09:00:32;12.23;;;7.55;;
61840;SDS011;47773;53.174;6.614;2023-08-06T09:02:58;12.80;;;6.05;;
61840;SDS011;47773;53.174;6.614;2023-08-06T09:05:25;12.50;;;6.45;;
61840;SDS011;47773;53.174;6.614;2023-08-06T09:07:56;10.40;;;6.40;;
61840;SDS011;47773;53.174;6.614;2023-08-06T09:12:55;16.80;;;6.97;;
61840;SDS011;47773;53.174;6.614;2023-08-06T09:15:25;13.55;;;6.68;;
61840;SDS011;47773;53.174;6.614;2023-08-06T09:17:52;15.88;;;6.80;;
61840;SDS011;47773;53.174;6.614;2023-08-06T09:20:18;16.23;;;8.13;;
61840;SDS011;47773;53.174;6.614;2023-08-06T09:22:43;11.95;;;7.28;;
61840;SDS011;47773;53.174;6.614;2023-08-06T09:25:10;14.65;;;7.65;;
61840;SDS011;47773;53.174;6.614;2023-08-06T09:27:39;13.18;;;8.77;;
61840;SDS011;47773;53.174;6.614;2023-08-06T09:30:06;16.05;;;8.02;;
61840;SDS011;47773;53.174;6.614;2023-08-06T09:32:45;21.35;;;7.90;;
61840;SDS011;47773;53.174;6.614;2023-08-06T09:35:17;15.13;;;7.40;;
61840;SDS011;47773;53.174;6.614;2023-08-06T09:37:44;12.55;;;7.07;;
61840;SDS011;47773;53.174;6.614;2023-08-06T09:40:29;15.57;;;7.18;;
61840;SDS011;47773;53.174;6.614;2023-08-06T09:42:57;13.18;;;6.18;;
61840;SDS011;47773;53.174;6.614;2023-08-06T09:45:28;9.55;;;5.53;;
61840;SDS011;47773;53.174;6.614;2023-08-06T09:47:57;16.75;;;5.07;;
61840;SDS011;47773;53.174;6.614;2023-08-06T09:50:23;8.55;;;5.05;;
61840;SDS011;47773;53.174;6.614;2023-08-06T09:52:55;8.95;;;5.00;;
61840;SDS011;47773;53.174;6.614;2023-08-06T09:55:21;14.10;;;4.68;;
61840;SDS011;47773;53.174;6.614;2023-08-06T09:57:48;8.77;;;4.63;;
61840;SDS011;47773;53.174;6.614;2023-08-06T10:00:14;9.07;;;4.45;;
61840;SDS011;47773;53.174;6.614;2023-08-06T10:02:41;14.30;;;4.05;;
61840;SDS011;47773;53.174;6.614;2023-08-06T10:05:08;11.57;;;4.45;;
61840;SDS011;47773;53.174;6.614;2023-08-06T10:07:34;8.02;;;4.07;;
61840;SDS011;47773;53.174;6.614;2023-08-06T10:10:01;9.05;;;4.30;;
61840;SDS011;47773;53.174;6.614;2023-08-06T10:12:34;6.88;;;4.45;;
61840;SDS011;47773;53.174;6.614;2023-08-06T10:15:08;9.50;;;4.20;;
61840;SDS011;47773;53.174;6.614;2023-08-06T10:17:37;8.43;;;4.18;;
61840;SDS011;47773;53.174;6.614;2023-08-06T10:20:05;12.38;;;4.53;;
61840;SDS011;47773;53.174;6.614;2023-08-06T10:22:32;7.82;;;4.40;;
61840;SDS011;47773;53.174;6.614;2023-08-06T10:24:59;8.60;;;4.00;;
61840;SDS011;47773;53.174;6.614;2023-08-06T10:30:19;9.65;;;4.18;;
61840;SDS011;47773;53.174;6.614;2023-08-06T10:32:46;7.70;;;3.75;;
61840;SDS011;47773;53.174;6.614;2023-08-06T10:38:19;6.70;;;3.60;;
61840;SDS011;47773;53.174;6.614;2023-08-06T10:43:37;8.98;;;3.58;;
61840;SDS011;47773;53.174;6.614;2023-08-06T10:46:13;20.48;;;8.30;;
61840;SDS011;47773;53.174;6.614;2023-08-06T10:48:51;7.13;;;3.58;;
61840;SDS011;47773;53.174;6.614;2023-08-06T10:51:17;9.93;;;4.10;;
61840;SDS011;47773;53.174;6.614;2023-08-06T10:53:46;9.52;;;4.00;;
61840;SDS011;47773;53.174;6.614;2023-08-06T10:56:16;13.68;;;3.92;;
61840;SDS011;47773;53.174;6.614;2023-08-06T10:58:47;6.93;;;3.30;;
61840;SDS011;47773;53.174;6.614;2023-08-06T11:01:13;7.30;;;3.33;;
61840;SDS011;47773;53.174;6.614;2023-08-06T11:03:41;8.15;;;3.72;;
61840;SDS011;47773;53.174;6.614;2023-08-06T11:06:08;6.63;;;3.53;;
61840;SDS011;47773;53.174;6.614;2023-08-06T11:08:35;7.18;;;3.25;;
61840;SDS011;47773;53.174;6.614;2023-08-06T11:11:12;7.50;;;3.25;;
61840;SDS011;47773;53.174;6.614;2023-08-06T11:13:47;6.95;;;3.20;;
61840;SDS011;47773;53.174;6.614;2023-08-06T11:18:40;7.35;;;3.20;;
61840;SDS011;47773;53.174;6.614;2023-08-06T11:21:07;5.65;;;3.30;;
61840;SDS011;47773;53.174;6.614;2023-08-06T11:23:33;6.85;;;3.38;;
61840;SDS011;47773;53.174;6.614;2023-08-06T11:26:00;8.82;;;3.58;;
61840;SDS011;47773;53.174;6.614;2023-08-06T11:28:26;8.95;;;3.53;;
61840;SDS011;47773;53.174;6.614;2023-08-06T11:30:52;9.48;;;3.85;;
61840;SDS011;47773;53.174;6.614;2023-08-06T11:33:21;7.22;;;3.60;;
61840;SDS011;47773;53.174;6.614;2023-08-06T11:35:48;11.55;;;3.63;;
61840;SDS011;47773;53.174;6.614;2023-08-06T11:38:14;11.20;;;4.72;;
61840;SDS011;47773;53.174;6.614;2023-08-06T11:40:41;8.88;;;3.83;;
61840;SDS011;47773;53.174;6.614;2023-08-06T11:43:12;7.97;;;3.60;;
61840;SDS011;47773;53.174;6.614;2023-08-06T11:45:38;5.85;;;3.13;;
61840;SDS011;47773;53.174;6.614;2023-08-06T11:48:06;8.73;;;3.63;;
61840;SDS011;47773;53.174;6.614;2023-08-06T11:50:35;10.77;;;3.72;;
61840;SDS011;47773;53.174;6.614;2023-08-06T11:53:03;6.30;;;3.60;;
61840;SDS011;47773;53.174;6.614;2023-08-06T11:55:29;9.63;;;4.40;;
61840;SDS011;47773;53.174;6.614;2023-08-06T11:57:55;7.15;;;3.53;;
61840;SDS011;47773;53.174;6.614;2023-08-06T12:00:22;7.60;;;3.50;;
61840;SDS011;47773;53.174;6.614;2023-08-06T12:02:49;5.72;;;3.33;;
61840;SDS011;47773;53.174;6.614;2023-08-06T12:05:20;7.57;;;3.70;;
61840;SDS011;47773;53.174;6.614;2023-08-06T12:07:55;7.63;;;4.10;;
61840;SDS011;47773;53.174;6.614;2023-08-06T12:10:22;8.48;;;4.32;;
61840;SDS011;47773;53.174;6.614;2023-08-06T12:12:49;9.00;;;3.90;;
61840;SDS011;47773;53.174;6.614;2023-08-06T12:15:15;6.18;;;3.50;;
61840;SDS011;47773;53.174;6.614;2023-08-06T12:17:41;8.32;;;3.70;;
61840;SDS011;47773;53.174;6.614;2023-08-06T12:20:08;12.88;;;4.00;;
61840;SDS011;47773;53.174;6.614;2023-08-06T12:22:34;12.65;;;4.32;;
61840;SDS011;47773;53.174;6.614;2023-08-06T12:25:04;8.23;;;3.80;;
61840;SDS011;47773;53.174;6.614;2023-08-06T12:27:37;8.07;;;4.00;;
61840;SDS011;47773;53.174;6.614;2023-08-06T12:30:04;10.57;;;4.15;;
61840;SDS011;47773;53.174;6.614;2023-08-06T12:32:30;9.65;;;4.20;;
61840;SDS011;47773;53.174;6.614;2023-08-06T12:34:56;10.45;;;3.78;;
61840;SDS011;47773;53.174;6.614;2023-08-06T12:37:22;13.27;;;4.07;;
61840;SDS011;47773;53.174;6.614;2023-08-06T12:39:48;10.77;;;3.60;;
61840;SDS011;47773;53.174;6.614;2023-08-06T12:42:14;7.07;;;3.63;;
61840;SDS011;47773;53.174;6.614;2023-08-06T12:44:40;7.60;;;3.72;;
61840;SDS011;47773;53.174;6.614;2023-08-06T12:47:09;8.85;;;3.88;;
61840;SDS011;47773;53.174;6.614;2023-08-06T12:49:34;7.43;;;3.80;;
61840;SDS011;47773;53.174;6.614;2023-08-06T12:52:00;8.43;;;3.50;;
61840;SDS011;47773;53.174;6.614;2023-08-06T12:54:27;11.27;;;3.97;;
61840;SDS011;47773;53.174;6.614;2023-08-06T12:56:53;9.80;;;3.63;;
61840;SDS011;47773;53.174;6.614;2023-08-06T12:59:19;7.80;;;3.75;;
61840;SDS011;47773;53.174;6.614;2023-08-06T13:01:45;9.18;;;3.35;;
61840;SDS011;47773;53.174;6.614;2023-08-06T13:04:11;7.85;;;3.75;;
61840;SDS011;47773;53.174;6.614;2023-08-06T13:06:37;6.43;;;3.50;;
61840;SDS011;47773;53.174;6.614;2023-08-06T13:09:07;7.20;;;3.53;;
61840;SDS011;47773;53.174;6.614;2023-08-06T13:11:34;5.18;;;3.10;;
61840;SDS011;47773;53.174;6.614;2023-08-06T13:14:04;7.57;;;3.42;;
61840;SDS011;47773;53.174;6.614;2023-08-06T13:16:31;9.30;;;3.17;;
61840;SDS011;47773;53.174;6.614;2023-08-06T13:18:58;7.45;;;3.40;;
61840;SDS011;47773;53.174;6.614;2023-08-06T13:21:23;11.63;;;3.38;;
61840;SDS011;47773;53.174;6.614;2023-08-06T13:23:49;7.13;;;3.67;;
61840;SDS011;47773;53.174;6.614;2023-08-06T13:26:15;8.82;;;3.38;;
61840;SDS011;47773;53.174;6.614;2023-08-06T13:28:41;8.82;;;3.90;;
61840;SDS011;47773;53.174;6.614;2023-08-06T13:31:07;8.48;;;3.10;;
61840;SDS011;47773;53.174;6.614;2023-08-06T13:33:33;6.40;;;3.20;;
61840;SDS011;47773;53.174;6.614;2023-08-06T13:35:58;7.57;;;3.33;;
61840;SDS011;47773;53.174;6.614;2023-08-06T13:38:24;6.20;;;3.45;;
61840;SDS011;47773;53.174;6.614;2023-08-06T13:40:50;6.38;;;3.45;;
61840;SDS011;47773;53.174;6.614;2023-08-06T13:43:15;7.18;;;3.17;;
61840;SDS011;47773;53.174;6.614;2023-08-06T13:45:44;5.57;;;3.45;;
61840;SDS011;47773;53.174;6.614;2023-08-06T13:48:09;11.63;;;3.70;;
61840;SDS011;47773;53.174;6.614;2023-08-06T13:50:35;10.10;;;3.33;;
61840;SDS011;47773;53.174;6.614;2023-08-06T13:53:02;10.15;;;3.38;;
61840;SDS011;47773;53.174;6.614;2023-08-06T13:55:28;4.97;;;3.00;;
61840;SDS011;47773;53.174;6.614;2023-08-06T13:57:53;7.47;;;3.17;;
61840;SDS011;47773;53.174;6.614;2023-08-06T14:00:19;9.73;;;3.47;;
61840;SDS011;47773;53.174;6.614;2023-08-06T14:02:45;10.82;;;3.28;;
61840;SDS011;47773;53.174;6.614;2023-08-06T14:05:10;8.25;;;3.25;;
61840;SDS011;47773;53.174;6.614;2023-08-06T14:07:36;8.90;;;3.47;;
61840;SDS011;47773;53.174;6.614;2023-08-06T14:10:02;11.43;;;3.50;;
61840;SDS011;47773;53.174;6.614;2023-08-06T14:12:27;6.47;;;3.20;;
61840;SDS011;47773;53.174;6.614;2023-08-06T14:14:53;8.07;;;4.00;;
61840;SDS011;47773;53.174;6.614;2023-08-06T14:17:19;7.35;;;3.45;;
61840;SDS011;47773;53.174;6.614;2023-08-06T14:19:44;6.75;;;3.35;;
61840;SDS011;47773;53.174;6.614;2023-08-06T14:22:10;7.38;;;3.58;;
61840;SDS011;47773;53.174;6.614;2023-08-06T14:24:36;6.60;;;3.72;;
61840;SDS011;47773;53.174;6.614;2023-08-06T14:27:01;8.38;;;3.65;;
61840;SDS011;47773;53.174;6.614;2023-08-06T14:29:29;9.10;;;3.80;;
61840;SDS011;47773;53.174;6.614;2023-08-06T14:31:54;6.93;;;3.42;;
61840;SDS011;47773;53.174;6.614;2023-08-06T14:34:20;8.27;;;3.55;;
61840;SDS011;47773;53.174;6.614;2023-08-06T14:36:46;6.95;;;3.75;;
61840;SDS011;47773;53.174;6.614;2023-08-06T14:39:11;6.63;;;3.30;;
61840;SDS011;47773;53.174;6.614;2023-08-06T14:41:37;6.70;;;3.58;;
61840;SDS011;47773;53.174;6.614;2023-08-06T14:44:03;7.30;;;3.60;;